Terminal Aerodrome Forecast
Issued by NWS

Home | Current Version | Previous Version | Text Only | Print | Product List | Glossary On
Versions: 1 2 3 4 5 6 7 8 9 10 11 12 13 14 15
000
FTUS46 KLOX 281738
TAFBUR
TAF
KBUR 281738Z 2818/2918 13007KT P6SM SKC
     FM282100 18012KT P6SM SKC
     FM290300 13006KT P6SM SKC
     FM291000 VRB03KT 4SM BR OVC006
     FM291600 VRB03KT P6SM SCT010=

USA.gov is the U.S. government's official web portal to all federal, state and local government web resources and services.